sensor_id;sensor_type;location;lat;lon;timestamp;P1;durP1;ratioP1;P2;durP2;ratioP2
55633;SDS011;41504;53.162;6.788;2023-07-09T00:01:25;10.10;;;7.00;;
55633;SDS011;41504;53.162;6.788;2023-07-09T00:03:50;8.95;;;6.57;;
55633;SDS011;41504;53.162;6.788;2023-07-09T00:06:17;10.77;;;6.85;;
55633;SDS011;41504;53.162;6.788;2023-07-09T00:08:44;9.88;;;7.07;;
55633;SDS011;41504;53.162;6.788;2023-07-09T00:11:12;8.93;;;6.68;;
55633;SDS011;41504;53.162;6.788;2023-07-09T00:13:39;11.65;;;7.10;;
55633;SDS011;41504;53.162;6.788;2023-07-09T00:16:10;9.70;;;7.03;;
55633;SDS011;41504;53.162;6.788;2023-07-09T00:18:39;9.48;;;6.80;;
55633;SDS011;41504;53.162;6.788;2023-07-09T00:21:04;10.45;;;6.68;;
55633;SDS011;41504;53.162;6.788;2023-07-09T00:23:31;11.73;;;7.30;;
55633;SDS011;41504;53.162;6.788;2023-07-09T00:25:56;9.88;;;7.18;;
55633;SDS011;41504;53.162;6.788;2023-07-09T00:28:22;11.13;;;6.90;;
55633;SDS011;41504;53.162;6.788;2023-07-09T00:30:49;10.02;;;7.50;;
55633;SDS011;41504;53.162;6.788;2023-07-09T00:33:15;11.00;;;7.40;;
55633;SDS011;41504;53.162;6.788;2023-07-09T00:35:44;11.80;;;7.55;;
55633;SDS011;41504;53.162;6.788;2023-07-09T00:38:20;10.33;;;7.53;;
55633;SDS011;41504;53.162;6.788;2023-07-09T00:41:13;10.85;;;7.60;;
55633;SDS011;41504;53.162;6.788;2023-07-09T00:43:43;11.52;;;7.95;;
55633;SDS011;41504;53.162;6.788;2023-07-09T00:49:03;10.77;;;7.93;;
55633;SDS011;41504;53.162;6.788;2023-07-09T00:51:33;10.32;;;7.38;;
55633;SDS011;41504;53.162;6.788;2023-07-09T00:54:28;11.45;;;7.38;;
55633;SDS011;41504;53.162;6.788;2023-07-09T00:57:04;10.00;;;7.30;;
55633;SDS011;41504;53.162;6.788;2023-07-09T00:59:36;11.50;;;8.20;;
55633;SDS011;41504;53.162;6.788;2023-07-09T01:02:03;9.57;;;7.38;;
55633;SDS011;41504;53.162;6.788;2023-07-09T01:04:29;10.25;;;7.10;;
55633;SDS011;41504;53.162;6.788;2023-07-09T01:06:56;10.55;;;7.68;;
55633;SDS011;41504;53.162;6.788;2023-07-09T01:09:22;10.98;;;7.97;;
55633;SDS011;41504;53.162;6.788;2023-07-09T01:11:49;9.85;;;7.35;;
55633;SDS011;41504;53.162;6.788;2023-07-09T01:14:17;12.55;;;8.65;;
55633;SDS011;41504;53.162;6.788;2023-07-09T01:16:47;9.90;;;7.38;;
55633;SDS011;41504;53.162;6.788;2023-07-09T01:19:25;9.93;;;7.60;;
55633;SDS011;41504;53.162;6.788;2023-07-09T01:21:57;10.85;;;7.35;;
55633;SDS011;41504;53.162;6.788;2023-07-09T01:27:31;10.68;;;7.93;;
55633;SDS011;41504;53.162;6.788;2023-07-09T01:30:01;11.18;;;7.82;;
55633;SDS011;41504;53.162;6.788;2023-07-09T01:32:42;10.80;;;8.00;;
55633;SDS011;41504;53.162;6.788;2023-07-09T01:35:14;11.52;;;8.30;;
55633;SDS011;41504;53.162;6.788;2023-07-09T01:37:42;10.43;;;8.32;;
55633;SDS011;41504;53.162;6.788;2023-07-09T01:40:10;9.35;;;7.43;;
55633;SDS011;41504;53.162;6.788;2023-07-09T01:42:38;11.25;;;7.60;;
55633;SDS011;41504;53.162;6.788;2023-07-09T01:45:05;11.48;;;8.25;;
55633;SDS011;41504;53.162;6.788;2023-07-09T01:47:32;10.85;;;7.93;;
55633;SDS011;41504;53.162;6.788;2023-07-09T01:49:58;10.90;;;8.10;;
55633;SDS011;41504;53.162;6.788;2023-07-09T01:52:29;10.57;;;7.90;;
55633;SDS011;41504;53.162;6.788;2023-07-09T01:54:56;13.68;;;7.85;;
55633;SDS011;41504;53.162;6.788;2023-07-09T01:57:23;12.70;;;8.55;;
55633;SDS011;41504;53.162;6.788;2023-07-09T01:59:58;10.57;;;7.70;;
55633;SDS011;41504;53.162;6.788;2023-07-09T02:02:26;9.98;;;7.70;;
55633;SDS011;41504;53.162;6.788;2023-07-09T02:04:53;10.73;;;7.63;;
55633;SDS011;41504;53.162;6.788;2023-07-09T02:07:21;10.80;;;7.85;;
55633;SDS011;41504;53.162;6.788;2023-07-09T02:09:48;11.52;;;8.02;;
55633;SDS011;41504;53.162;6.788;2023-07-09T02:12:14;10.88;;;8.52;;
55633;SDS011;41504;53.162;6.788;2023-07-09T02:14:41;11.70;;;8.13;;
55633;SDS011;41504;53.162;6.788;2023-07-09T02:17:08;12.13;;;8.15;;
55633;SDS011;41504;53.162;6.788;2023-07-09T02:19:34;11.48;;;8.48;;
55633;SDS011;41504;53.162;6.788;2023-07-09T02:22:00;11.07;;;7.93;;
55633;SDS011;41504;53.162;6.788;2023-07-09T02:24:26;11.63;;;8.48;;
55633;SDS011;41504;53.162;6.788;2023-07-09T02:26:56;11.10;;;8.30;;
55633;SDS011;41504;53.162;6.788;2023-07-09T02:29:23;14.13;;;8.15;;
55633;SDS011;41504;53.162;6.788;2023-07-09T02:31:50;11.07;;;8.15;;
55633;SDS011;41504;53.162;6.788;2023-07-09T02:34:18;10.52;;;7.85;;
55633;SDS011;41504;53.162;6.788;2023-07-09T02:36:44;12.75;;;8.40;;
55633;SDS011;41504;53.162;6.788;2023-07-09T02:39:10;11.75;;;8.98;;
55633;SDS011;41504;53.162;6.788;2023-07-09T02:41:38;10.70;;;8.65;;
55633;SDS011;41504;53.162;6.788;2023-07-09T02:44:05;13.13;;;8.77;;
55633;SDS011;41504;53.162;6.788;2023-07-09T02:46:30;10.48;;;8.30;;
55633;SDS011;41504;53.162;6.788;2023-07-09T02:48:56;11.95;;;9.00;;
55633;SDS011;41504;53.162;6.788;2023-07-09T02:51:23;10.25;;;8.38;;
55633;SDS011;41504;53.162;6.788;2023-07-09T02:53:55;12.10;;;8.73;;
55633;SDS011;41504;53.162;6.788;2023-07-09T02:56:22;12.10;;;9.02;;
55633;SDS011;41504;53.162;6.788;2023-07-09T02:58:49;14.32;;;9.02;;
55633;SDS011;41504;53.162;6.788;2023-07-09T03:01:15;11.77;;;8.23;;
55633;SDS011;41504;53.162;6.788;2023-07-09T03:03:42;10.77;;;8.50;;
55633;SDS011;41504;53.162;6.788;2023-07-09T03:06:08;10.85;;;8.05;;
55633;SDS011;41504;53.162;6.788;2023-07-09T03:08:34;11.45;;;8.38;;
55633;SDS011;41504;53.162;6.788;2023-07-09T03:11:02;13.02;;;9.07;;
55633;SDS011;41504;53.162;6.788;2023-07-09T03:13:36;11.48;;;8.68;;
55633;SDS011;41504;53.162;6.788;2023-07-09T03:16:02;15.43;;;8.35;;
55633;SDS011;41504;53.162;6.788;2023-07-09T03:18:28;11.00;;;8.40;;
55633;SDS011;41504;53.162;6.788;2023-07-09T03:20:53;11.65;;;8.50;;
55633;SDS011;41504;53.162;6.788;2023-07-09T03:23:19;11.40;;;8.52;;
55633;SDS011;41504;53.162;6.788;2023-07-09T03:25:45;12.77;;;8.50;;
55633;SDS011;41504;53.162;6.788;2023-07-09T03:28:11;14.13;;;9.02;;
55633;SDS011;41504;53.162;6.788;2023-07-09T03:30:42;12.45;;;8.20;;
55633;SDS011;41504;53.162;6.788;2023-07-09T03:33:09;13.35;;;8.18;;
55633;SDS011;41504;53.162;6.788;2023-07-09T03:35:36;11.70;;;8.48;;
55633;SDS011;41504;53.162;6.788;2023-07-09T03:38:03;12.90;;;8.48;;
55633;SDS011;41504;53.162;6.788;2023-07-09T03:40:29;10.43;;;7.93;;
55633;SDS011;41504;53.162;6.788;2023-07-09T03:42:55;13.07;;;8.32;;
55633;SDS011;41504;53.162;6.788;2023-07-09T03:45:21;14.45;;;8.27;;
55633;SDS011;41504;53.162;6.788;2023-07-09T03:47:47;11.20;;;8.32;;
55633;SDS011;41504;53.162;6.788;2023-07-09T03:50:13;12.18;;;7.93;;
55633;SDS011;41504;53.162;6.788;2023-07-09T03:52:38;13.60;;;7.80;;
55633;SDS011;41504;53.162;6.788;2023-07-09T03:55:04;18.40;;;9.32;;
55633;SDS011;41504;53.162;6.788;2023-07-09T03:57:31;11.63;;;7.93;;
55633;SDS011;41504;53.162;6.788;2023-07-09T03:59:56;11.63;;;8.27;;
55633;SDS011;41504;53.162;6.788;2023-07-09T04:02:22;11.98;;;8.07;;
55633;SDS011;41504;53.162;6.788;2023-07-09T04:04:48;11.95;;;7.47;;
55633;SDS011;41504;53.162;6.788;2023-07-09T04:07:14;10.98;;;8.20;;
55633;SDS011;41504;53.162;6.788;2023-07-09T04:09:40;11.50;;;7.95;;
55633;SDS011;41504;53.162;6.788;2023-07-09T04:12:09;11.38;;;8.07;;
55633;SDS011;41504;53.162;6.788;2023-07-09T04:14:35;11.98;;;7.68;;
55633;SDS011;41504;53.162;6.788;2023-07-09T04:17:01;9.93;;;7.63;;
55633;SDS011;41504;53.162;6.788;2023-07-09T04:19:27;10.77;;;7.43;;
55633;SDS011;41504;53.162;6.788;2023-07-09T04:21:53;9.85;;;7.63;;
55633;SDS011;41504;53.162;6.788;2023-07-09T04:24:19;10.23;;;7.65;;
55633;SDS011;41504;53.162;6.788;2023-07-09T04:26:45;11.88;;;8.35;;
55633;SDS011;41504;53.162;6.788;2023-07-09T04:29:11;10.48;;;7.30;;
55633;SDS011;41504;53.162;6.788;2023-07-09T04:31:37;11.05;;;7.88;;
55633;SDS011;41504;53.162;6.788;2023-07-09T04:34:04;11.10;;;7.90;;
55633;SDS011;41504;53.162;6.788;2023-07-09T04:36:30;10.20;;;8.10;;
55633;SDS011;41504;53.162;6.788;2023-07-09T04:38:56;9.75;;;7.47;;
55633;SDS011;41504;53.162;6.788;2023-07-09T04:41:22;9.80;;;7.53;;
55633;SDS011;41504;53.162;6.788;2023-07-09T04:43:48;11.68;;;7.90;;
55633;SDS011;41504;53.162;6.788;2023-07-09T04:46:14;11.15;;;8.02;;
55633;SDS011;41504;53.162;6.788;2023-07-09T04:48:43;12.10;;;7.80;;
55633;SDS011;41504;53.162;6.788;2023-07-09T04:51:10;9.50;;;7.25;;
55633;SDS011;41504;53.162;6.788;2023-07-09T04:53:35;10.85;;;8.35;;
55633;SDS011;41504;53.162;6.788;2023-07-09T04:56:01;12.07;;;8.00;;
55633;SDS011;41504;53.162;6.788;2023-07-09T04:58:28;10.70;;;7.85;;
55633;SDS011;41504;53.162;6.788;2023-07-09T05:00:58;10.77;;;8.27;;
55633;SDS011;41504;53.162;6.788;2023-07-09T05:03:24;10.75;;;7.40;;
55633;SDS011;41504;53.162;6.788;2023-07-09T05:05:50;11.60;;;8.27;;
55633;SDS011;41504;53.162;6.788;2023-07-09T05:08:16;11.00;;;7.63;;
55633;SDS011;41504;53.162;6.788;2023-07-09T05:10:46;11.18;;;7.90;;
55633;SDS011;41504;53.162;6.788;2023-07-09T05:13:15;9.88;;;7.38;;
55633;SDS011;41504;53.162;6.788;2023-07-09T05:15:43;11.07;;;8.32;;
55633;SDS011;41504;53.162;6.788;2023-07-09T05:18:10;11.30;;;7.70;;
55633;SDS011;41504;53.162;6.788;2023-07-09T05:20:36;10.00;;;7.65;;
55633;SDS011;41504;53.162;6.788;2023-07-09T05:23:02;9.65;;;7.47;;
55633;SDS011;41504;53.162;6.788;2023-07-09T05:25:28;10.80;;;7.70;;
55633;SDS011;41504;53.162;6.788;2023-07-09T05:27:54;11.00;;;7.28;;
55633;SDS011;41504;53.162;6.788;2023-07-09T05:30:20;12.82;;;7.97;;
55633;SDS011;41504;53.162;6.788;2023-07-09T05:32:46;11.30;;;8.00;;
55633;SDS011;41504;53.162;6.788;2023-07-09T05:35:12;10.65;;;7.88;;
55633;SDS011;41504;53.162;6.788;2023-07-09T05:37:39;10.43;;;7.65;;
55633;SDS011;41504;53.162;6.788;2023-07-09T05:40:05;10.27;;;7.30;;
55633;SDS011;41504;53.162;6.788;2023-07-09T05:42:33;9.93;;;7.70;;
55633;SDS011;41504;53.162;6.788;2023-07-09T05:44:59;10.57;;;7.97;;
55633;SDS011;41504;53.162;6.788;2023-07-09T05:47:25;10.65;;;7.60;;
55633;SDS011;41504;53.162;6.788;2023-07-09T05:49:52;10.15;;;7.50;;
55633;SDS011;41504;53.162;6.788;2023-07-09T05:52:18;10.98;;;8.23;;
55633;SDS011;41504;53.162;6.788;2023-07-09T05:54:45;10.85;;;7.68;;
55633;SDS011;41504;53.162;6.788;2023-07-09T05:57:13;11.43;;;7.88;;
55633;SDS011;41504;53.162;6.788;2023-07-09T05:59:39;10.95;;;8.50;;
55633;SDS011;41504;53.162;6.788;2023-07-09T06:02:07;11.38;;;8.32;;
55633;SDS011;41504;53.162;6.788;2023-07-09T06:04:36;13.80;;;7.85;;
55633;SDS011;41504;53.162;6.788;2023-07-09T06:07:02;11.05;;;8.00;;
55633;SDS011;41504;53.162;6.788;2023-07-09T06:09:29;14.27;;;8.27;;
55633;SDS011;41504;53.162;6.788;2023-07-09T06:11:55;11.98;;;8.38;;
55633;SDS011;41504;53.162;6.788;2023-07-09T06:14:21;13.48;;;8.63;;
55633;SDS011;41504;53.162;6.788;2023-07-09T06:16:46;11.85;;;8.52;;
55633;SDS011;41504;53.162;6.788;2023-07-09T06:19:12;11.68;;;8.20;;
55633;SDS011;41504;53.162;6.788;2023-07-09T06:21:38;10.93;;;7.88;;
55633;SDS011;41504;53.162;6.788;2023-07-09T06:24:05;9.55;;;7.80;;
55633;SDS011;41504;53.162;6.788;2023-07-09T06:26:32;10.25;;;8.00;;
55633;SDS011;41504;53.162;6.788;2023-07-09T06:28:58;10.98;;;8.35;;
55633;SDS011;41504;53.162;6.788;2023-07-09T06:31:23;11.25;;;8.13;;
55633;SDS011;41504;53.162;6.788;2023-07-09T06:33:49;10.68;;;8.10;;
55633;SDS011;41504;53.162;6.788;2023-07-09T06:36:16;10.13;;;7.97;;
55633;SDS011;41504;53.162;6.788;2023-07-09T06:38:43;11.43;;;8.18;;
55633;SDS011;41504;53.162;6.788;2023-07-09T06:41:10;12.20;;;7.82;;
55633;SDS011;41504;53.162;6.788;2023-07-09T06:43:38;10.77;;;8.05;;
55633;SDS011;41504;53.162;6.788;2023-07-09T06:46:05;11.40;;;7.95;;
55633;SDS011;41504;53.162;6.788;2023-07-09T06:48:32;12.07;;;8.07;;
55633;SDS011;41504;53.162;6.788;2023-07-09T06:50:58;9.82;;;7.55;;
55633;SDS011;41504;53.162;6.788;2023-07-09T06:53:25;11.95;;;7.82;;
55633;SDS011;41504;53.162;6.788;2023-07-09T06:55:52;13.25;;;8.90;;
55633;SDS011;41504;53.162;6.788;2023-07-09T06:58:20;11.75;;;8.05;;
55633;SDS011;41504;53.162;6.788;2023-07-09T07:00:48;10.13;;;8.02;;
55633;SDS011;41504;53.162;6.788;2023-07-09T07:03:14;13.20;;;8.05;;
55633;SDS011;41504;53.162;6.788;2023-07-09T07:05:48;11.75;;;8.90;;
55633;SDS011;41504;53.162;6.788;2023-07-09T07:08:15;12.43;;;8.70;;
55633;SDS011;41504;53.162;6.788;2023-07-09T07:10:43;12.35;;;8.18;;
55633;SDS011;41504;53.162;6.788;2023-07-09T07:13:09;11.57;;;8.70;;
55633;SDS011;41504;53.162;6.788;2023-07-09T07:15:36;11.82;;;7.53;;
55633;SDS011;41504;53.162;6.788;2023-07-09T07:18:03;11.43;;;8.82;;
55633;SDS011;41504;53.162;6.788;2023-07-09T07:20:29;13.60;;;8.70;;
55633;SDS011;41504;53.162;6.788;2023-07-09T07:22:56;13.25;;;10.80;;
55633;SDS011;41504;53.162;6.788;2023-07-09T07:25:22;11.60;;;9.20;;
55633;SDS011;41504;53.162;6.788;2023-07-09T07:27:49;13.20;;;9.43;;
55633;SDS011;41504;53.162;6.788;2023-07-09T07:30:15;12.75;;;9.65;;
55633;SDS011;41504;53.162;6.788;2023-07-09T07:32:42;12.32;;;8.93;;
55633;SDS011;41504;53.162;6.788;2023-07-09T07:35:10;13.90;;;9.95;;
55633;SDS011;41504;53.162;6.788;2023-07-09T07:37:36;13.57;;;9.60;;
55633;SDS011;41504;53.162;6.788;2023-07-09T07:40:01;13.25;;;9.88;;
55633;SDS011;41504;53.162;6.788;2023-07-09T07:42:29;13.90;;;9.35;;
55633;SDS011;41504;53.162;6.788;2023-07-09T07:44:55;14.45;;;8.75;;
55633;SDS011;41504;53.162;6.788;2023-07-09T07:47:21;12.75;;;9.10;;
55633;SDS011;41504;53.162;6.788;2023-07-09T07:49:47;14.95;;;9.50;;
55633;SDS011;41504;53.162;6.788;2023-07-09T07:52:13;13.52;;;9.63;;
55633;SDS011;41504;53.162;6.788;2023-07-09T07:54:39;14.38;;;8.98;;
55633;SDS011;41504;53.162;6.788;2023-07-09T07:57:04;11.93;;;8.70;;
55633;SDS011;41504;53.162;6.788;2023-07-09T07:59:30;12.45;;;8.93;;
55633;SDS011;41504;53.162;6.788;2023-07-09T08:01:59;11.02;;;8.65;;
55633;SDS011;41504;53.162;6.788;2023-07-09T08:04:26;12.93;;;9.18;;
55633;SDS011;41504;53.162;6.788;2023-07-09T08:06:51;11.88;;;9.05;;
55633;SDS011;41504;53.162;6.788;2023-07-09T08:09:21;10.52;;;8.35;;
55633;SDS011;41504;53.162;6.788;2023-07-09T08:11:47;14.77;;;9.48;;
55633;SDS011;41504;53.162;6.788;2023-07-09T08:14:14;16.25;;;9.07;;
55633;SDS011;41504;53.162;6.788;2023-07-09T08:16:40;13.38;;;9.00;;
55633;SDS011;41504;53.162;6.788;2023-07-09T08:19:06;11.13;;;8.90;;
55633;SDS011;41504;53.162;6.788;2023-07-09T08:21:32;11.57;;;8.98;;
55633;SDS011;41504;53.162;6.788;2023-07-09T08:23:58;14.00;;;9.48;;
55633;SDS011;41504;53.162;6.788;2023-07-09T08:26:24;12.10;;;8.60;;
55633;SDS011;41504;53.162;6.788;2023-07-09T08:28:50;11.88;;;8.38;;
55633;SDS011;41504;53.162;6.788;2023-07-09T08:31:17;10.88;;;8.27;;
55633;SDS011;41504;53.162;6.788;2023-07-09T08:33:43;12.13;;;8.43;;
55633;SDS011;41504;53.162;6.788;2023-07-09T08:36:08;12.90;;;8.02;;
55633;SDS011;41504;53.162;6.788;2023-07-09T08:38:34;11.95;;;8.82;;
55633;SDS011;41504;53.162;6.788;2023-07-09T08:43:49;12.88;;;7.85;;
55633;SDS011;41504;53.162;6.788;2023-07-09T08:49:30;11.38;;;7.72;;
55633;SDS011;41504;53.162;6.788;2023-07-09T08:51:59;12.98;;;7.93;;
55633;SDS011;41504;53.162;6.788;2023-07-09T08:54:26;11.38;;;7.50;;
55633;SDS011;41504;53.162;6.788;2023-07-09T08:56:59;10.20;;;7.35;;
55633;SDS011;41504;53.162;6.788;2023-07-09T08:59:32;10.60;;;7.70;;
55633;SDS011;41504;53.162;6.788;2023-07-09T09:01:59;10.65;;;7.00;;
55633;SDS011;41504;53.162;6.788;2023-07-09T09:04:29;11.10;;;7.07;;
55633;SDS011;41504;53.162;6.788;2023-07-09T09:07:14;10.27;;;7.25;;
55633;SDS011;41504;53.162;6.788;2023-07-09T09:10:17;10.55;;;7.20;;
55633;SDS011;41504;53.162;6.788;2023-07-09T09:15:37;10.13;;;7.10;;
55633;SDS011;41504;53.162;6.788;2023-07-09T09:18:17;11.43;;;7.18;;
55633;SDS011;41504;53.162;6.788;2023-07-09T09:20:51;10.63;;;7.00;;
55633;SDS011;41504;53.162;6.788;2023-07-09T09:23:40;12.35;;;7.53;;
55633;SDS011;41504;53.162;6.788;2023-07-09T09:26:34;11.75;;;7.47;;
55633;SDS011;41504;53.162;6.788;2023-07-09T09:28:59;12.13;;;7.28;;
55633;SDS011;41504;53.162;6.788;2023-07-09T09:31:26;10.73;;;7.10;;
55633;SDS011;41504;53.162;6.788;2023-07-09T09:33:54;10.70;;;7.85;;
55633;SDS011;41504;53.162;6.788;2023-07-09T09:36:21;11.98;;;7.30;;
55633;SDS011;41504;53.162;6.788;2023-07-09T09:38:49;10.95;;;7.00;;
55633;SDS011;41504;53.162;6.788;2023-07-09T09:41:23;10.68;;;7.38;;
55633;SDS011;41504;53.162;6.788;2023-07-09T09:43:52;10.10;;;7.10;;
55633;SDS011;41504;53.162;6.788;2023-07-09T09:46:20;9.13;;;6.70;;
55633;SDS011;41504;53.162;6.788;2023-07-09T09:48:53;10.88;;;6.95;;
55633;SDS011;41504;53.162;6.788;2023-07-09T09:51:22;12.63;;;7.18;;
55633;SDS011;41504;53.162;6.788;2023-07-09T09:53:49;9.93;;;7.43;;
55633;SDS011;41504;53.162;6.788;2023-07-09T09:56:24;10.60;;;6.72;;
55633;SDS011;41504;53.162;6.788;2023-07-09T09:58:53;11.48;;;6.75;;
55633;SDS011;41504;53.162;6.788;2023-07-09T10:01:22;9.57;;;6.60;;
55633;SDS011;41504;53.162;6.788;2023-07-09T10:04:01;10.55;;;7.00;;
55633;SDS011;41504;53.162;6.788;2023-07-09T10:06:36;12.27;;;6.60;;
55633;SDS011;41504;53.162;6.788;2023-07-09T10:11:51;9.75;;;6.53;;
55633;SDS011;41504;53.162;6.788;2023-07-09T10:14:34;9.05;;;6.95;;
55633;SDS011;41504;53.162;6.788;2023-07-09T10:17:22;11.55;;;7.00;;
55633;SDS011;41504;53.162;6.788;2023-07-09T10:39:45;12.00;;;6.45;;
55633;SDS011;41504;53.162;6.788;2023-07-09T10:42:22;9.05;;;6.40;;
55633;SDS011;41504;53.162;6.788;2023-07-09T10:44:54;9.15;;;6.35;;
55633;SDS011;41504;53.162;6.788;2023-07-09T10:47:40;12.90;;;6.95;;
55633;SDS011;41504;53.162;6.788;2023-07-09T10:51:13;10.25;;;6.60;;
55633;SDS011;41504;53.162;6.788;2023-07-09T10:53:23;9.23;;;6.63;;
55633;SDS011;41504;53.162;6.788;2023-07-09T10:56:05;12.27;;;7.95;;
55633;SDS011;41504;53.162;6.788;2023-07-09T10:58:55;10.73;;;7.53;;
55633;SDS011;41504;53.162;6.788;2023-07-09T11:01:30;10.10;;;6.53;;
55633;SDS011;41504;53.162;6.788;2023-07-09T11:04:20;12.48;;;7.32;;
55633;SDS011;41504;53.162;6.788;2023-07-09T11:07:05;9.90;;;7.35;;
55633;SDS011;41504;53.162;6.788;2023-07-09T11:09:41;9.23;;;6.93;;
55633;SDS011;41504;53.162;6.788;2023-07-09T11:14:46;11.73;;;7.10;;
55633;SDS011;41504;53.162;6.788;2023-07-09T11:17:19;10.63;;;6.80;;
55633;SDS011;41504;53.162;6.788;2023-07-09T11:19:46;11.00;;;7.40;;
55633;SDS011;41504;53.162;6.788;2023-07-09T11:22:22;9.73;;;7.47;;
55633;SDS011;41504;53.162;6.788;2023-07-09T11:25:05;17.75;;;10.38;;
55633;SDS011;41504;53.162;6.788;2023-07-09T11:27:50;10.57;;;6.90;;
55633;SDS011;41504;53.162;6.788;2023-07-09T11:30:20;10.88;;;7.63;;
55633;SDS011;41504;53.162;6.788;2023-07-09T11:32:52;9.43;;;6.97;;
55633;SDS011;41504;53.162;6.788;2023-07-09T11:35:27;11.02;;;6.97;;
55633;SDS011;41504;53.162;6.788;2023-07-09T11:37:54;8.75;;;5.43;;
55633;SDS011;41504;53.162;6.788;2023-07-09T11:40:23;9.00;;;6.05;;
55633;SDS011;41504;53.162;6.788;2023-07-09T11:42:51;8.57;;;5.60;;
55633;SDS011;41504;53.162;6.788;2023-07-09T11:45:20;10.57;;;6.22;;
55633;SDS011;41504;53.162;6.788;2023-07-09T11:48:00;9.15;;;5.85;;
55633;SDS011;41504;53.162;6.788;2023-07-09T11:50:47;8.70;;;5.90;;
55633;SDS011;41504;53.162;6.788;2023-07-09T11:55:42;8.50;;;5.88;;
55633;SDS011;41504;53.162;6.788;2023-07-09T11:58:10;9.45;;;6.05;;
55633;SDS011;41504;53.162;6.788;2023-07-09T12:00:45;8.85;;;5.63;;
55633;SDS011;41504;53.162;6.788;2023-07-09T12:03:15;9.88;;;5.97;;
55633;SDS011;41504;53.162;6.788;2023-07-09T12:06:03;9.52;;;5.97;;
55633;SDS011;41504;53.162;6.788;2023-07-09T12:08:42;11.10;;;5.90;;
55633;SDS011;41504;53.162;6.788;2023-07-09T12:13:53;9.18;;;5.70;;
55633;SDS011;41504;53.162;6.788;2023-07-09T12:19:02;9.85;;;5.60;;
55633;SDS011;41504;53.162;6.788;2023-07-09T12:21:29;8.02;;;5.70;;
55633;SDS011;41504;53.162;6.788;2023-07-09T12:23:57;11.68;;;6.38;;
55633;SDS011;41504;53.162;6.788;2023-07-09T12:26:23;11.02;;;5.65;;
55633;SDS011;41504;53.162;6.788;2023-07-09T12:28:50;10.85;;;5.93;;
55633;SDS011;41504;53.162;6.788;2023-07-09T12:31:21;10.10;;;6.15;;
55633;SDS011;41504;53.162;6.788;2023-07-09T12:33:52;11.35;;;6.45;;
55633;SDS011;41504;53.162;6.788;2023-07-09T12:36:20;9.77;;;6.03;;
55633;SDS011;41504;53.162;6.788;2023-07-09T12:38:48;8.68;;;5.95;;
55633;SDS011;41504;53.162;6.788;2023-07-09T12:41:19;8.85;;;5.88;;
55633;SDS011;41504;53.162;6.788;2023-07-09T12:43:50;9.25;;;6.30;;
55633;SDS011;41504;53.162;6.788;2023-07-09T12:46:17;8.30;;;6.03;;
55633;SDS011;41504;53.162;6.788;2023-07-09T12:48:44;10.80;;;6.13;;
55633;SDS011;41504;53.162;6.788;2023-07-09T12:51:16;11.27;;;6.10;;
55633;SDS011;41504;53.162;6.788;2023-07-09T12:54:00;10.18;;;6.22;;
55633;SDS011;41504;53.162;6.788;2023-07-09T12:56:39;9.48;;;5.82;;
55633;SDS011;41504;53.162;6.788;2023-07-09T12:59:21;10.18;;;5.68;;
55633;SDS011;41504;53.162;6.788;2023-07-09T13:01:49;8.30;;;5.50;;
55633;SDS011;41504;53.162;6.788;2023-07-09T13:04:19;10.68;;;5.70;;
55633;SDS011;41504;53.162;6.788;2023-07-09T13:06:45;10.52;;;5.50;;
55633;SDS011;41504;53.162;6.788;2023-07-09T13:09:14;7.88;;;5.47;;
55633;SDS011;41504;53.162;6.788;2023-07-09T13:11:50;7.85;;;5.25;;
55633;SDS011;41504;53.162;6.788;2023-07-09T13:14:17;8.25;;;5.35;;
55633;SDS011;41504;53.162;6.788;2023-07-09T13:16:46;9.35;;;5.35;;
55633;SDS011;41504;53.162;6.788;2023-07-09T13:19:12;9.13;;;5.13;;
55633;SDS011;41504;53.162;6.788;2023-07-09T13:21:38;9.73;;;6.00;;
55633;SDS011;41504;53.162;6.788;2023-07-09T13:24:24;11.15;;;5.28;;
55633;SDS011;41504;53.162;6.788;2023-07-09T13:26:52;9.70;;;5.35;;
55633;SDS011;41504;53.162;6.788;2023-07-09T13:29:19;8.25;;;5.00;;
55633;SDS011;41504;53.162;6.788;2023-07-09T13:31:46;8.07;;;5.65;;
55633;SDS011;41504;53.162;6.788;2023-07-09T13:34:23;7.53;;;4.97;;
55633;SDS011;41504;53.162;6.788;2023-07-09T13:36:51;8.35;;;5.43;;
55633;SDS011;41504;53.162;6.788;2023-07-09T13:39:19;9.75;;;6.15;;
55633;SDS011;41504;53.162;6.788;2023-07-09T13:41:46;8.85;;;6.00;;
55633;SDS011;41504;53.162;6.788;2023-07-09T13:44:21;8.88;;;6.18;;
55633;SDS011;41504;53.162;6.788;2023-07-09T13:46:52;8.00;;;5.82;;
55633;SDS011;41504;53.162;6.788;2023-07-09T13:49:23;10.32;;;7.20;;
55633;SDS011;41504;53.162;6.788;2023-07-09T13:51:53;11.30;;;7.50;;
55633;SDS011;41504;53.162;6.788;2023-07-09T13:54:22;8.80;;;6.93;;
55633;SDS011;41504;53.162;6.788;2023-07-09T13:56:50;10.25;;;6.95;;
55633;SDS011;41504;53.162;6.788;2023-07-09T13:59:18;9.35;;;6.88;;
55633;SDS011;41504;53.162;6.788;2023-07-09T14:04:15;9.73;;;7.13;;
55633;SDS011;41504;53.162;6.788;2023-07-09T14:06:43;12.75;;;8.25;;
55633;SDS011;41504;53.162;6.788;2023-07-09T14:09:11;10.65;;;8.00;;
55633;SDS011;41504;53.162;6.788;2023-07-09T14:11:39;10.23;;;7.68;;
55633;SDS011;41504;53.162;6.788;2023-07-09T14:14:11;9.25;;;7.28;;
55633;SDS011;41504;53.162;6.788;2023-07-09T14:16:45;9.38;;;6.80;;
55633;SDS011;41504;53.162;6.788;2023-07-09T14:19:13;9.95;;;7.00;;
55633;SDS011;41504;53.162;6.788;2023-07-09T14:21:41;10.07;;;7.22;;
55633;SDS011;41504;53.162;6.788;2023-07-09T14:24:16;9.05;;;6.95;;
55633;SDS011;41504;53.162;6.788;2023-07-09T14:26:54;10.60;;;7.07;;
55633;SDS011;41504;53.162;6.788;2023-07-09T14:29:22;10.32;;;7.10;;
55633;SDS011;41504;53.162;6.788;2023-07-09T14:31:49;8.65;;;7.15;;
55633;SDS011;41504;53.162;6.788;2023-07-09T14:36:49;9.98;;;7.43;;
55633;SDS011;41504;53.162;6.788;2023-07-09T14:39:16;9.20;;;7.38;;
55633;SDS011;41504;53.162;6.788;2023-07-09T14:41:42;9.00;;;6.82;;
55633;SDS011;41504;53.162;6.788;2023-07-09T14:46:52;10.32;;;6.20;;
55633;SDS011;41504;53.162;6.788;2023-07-09T14:49:19;8.85;;;6.20;;
55633;SDS011;41504;53.162;6.788;2023-07-09T14:51:45;10.25;;;6.03;;
55633;SDS011;41504;53.162;6.788;2023-07-09T14:54:27;8.82;;;6.30;;
55633;SDS011;41504;53.162;6.788;2023-07-09T14:56:55;9.18;;;6.45;;
55633;SDS011;41504;53.162;6.788;2023-07-09T14:59:22;11.57;;;6.88;;
55633;SDS011;41504;53.162;6.788;2023-07-09T15:01:50;10.90;;;6.20;;
55633;SDS011;41504;53.162;6.788;2023-07-09T15:06:56;10.68;;;6.88;;
55633;SDS011;41504;53.162;6.788;2023-07-09T15:09:23;8.38;;;5.90;;
55633;SDS011;41504;53.162;6.788;2023-07-09T15:11:51;9.75;;;6.20;;
55633;SDS011;41504;53.162;6.788;2023-07-09T15:14:19;11.45;;;7.35;;
55633;SDS011;41504;53.162;6.788;2023-07-09T15:16:48;10.32;;;6.20;;
55633;SDS011;41504;53.162;6.788;2023-07-09T15:19:15;10.05;;;6.25;;
55633;SDS011;41504;53.162;6.788;2023-07-09T15:21:42;11.80;;;7.93;;
55633;SDS011;41504;53.162;6.788;2023-07-09T15:24:53;10.15;;;6.72;;
55633;SDS011;41504;53.162;6.788;2023-07-09T15:26:57;9.30;;;7.07;;
55633;SDS011;41504;53.162;6.788;2023-07-09T15:29:25;10.05;;;7.07;;
55633;SDS011;41504;53.162;6.788;2023-07-09T15:31:50;11.10;;;7.40;;
55633;SDS011;41504;53.162;6.788;2023-07-09T15:34:16;13.45;;;7.65;;
55633;SDS011;41504;53.162;6.788;2023-07-09T15:36:46;13.57;;;7.78;;
55633;SDS011;41504;53.162;6.788;2023-07-09T15:39:14;10.45;;;8.45;;
55633;SDS011;41504;53.162;6.788;2023-07-09T15:41:41;17.92;;;13.60;;
55633;SDS011;41504;53.162;6.788;2023-07-09T15:44:11;18.98;;;14.15;;
55633;SDS011;41504;53.162;6.788;2023-07-09T15:46:38;17.65;;;13.13;;
55633;SDS011;41504;53.162;6.788;2023-07-09T15:49:06;16.20;;;12.20;;